Time;durP1;ratioP1;P1;durP2;ratioP2;P2;SDS_P1;SDS_P2;PMS_P1;PMS_P2;Temp;Humidity;BMP_temperature;BMP_pressure;BME280_temperature;BME280_humidity;BME280_pressure;Samples;Min_cycle;Max_cycle;Signal;HPM_P1;HPM_P2
2023/11/24 00:01:07;;;;;;;17.83;11.47;;;1.50;99.90;;;;;;5052830;28;20204;-57
2023/11/24 00:03:34;;;;;;;13.57;10.17;;;1.50;99.90;;;;;;5061945;28;20286;-57
2023/11/24 00:06:00;;;;;;;16.93;10.97;;;1.50;99.90;;;;;;5044536;28;20225;-57
2023/11/24 00:08:28;;;;;;;14.43;10.07;;;1.50;99.90;;;;;;5051130;28;20339;-57
2023/11/24 00:10:55;;;;;;;14.87;10.73;;;1.60;99.90;;;;;;5044282;28;20227;-57
2023/11/24 00:13:22;;;;;;;13.73;10.33;;;1.70;99.90;;;;;;5048921;28;20234;-56
2023/11/24 00:15:51;;;;;;;13.37;10.00;;;1.70;99.90;;;;;;5051036;28;20196;-57
2023/11/24 00:18:21;;;;;;;14.67;10.93;;;1.60;99.90;;;;;;5043367;28;20454;-57
2023/11/24 00:20:48;;;;;;;16.47;10.67;;;1.60;99.90;;;;;;5041881;28;20214;-57
2023/11/24 00:23:15;;;;;;;13.13;10.87;;;1.60;99.90;;;;;;5038415;28;20238;-57
2023/11/24 00:25:42;;;;;;;21.97;11.87;;;1.70;99.90;;;;;;5048044;28;20250;-57
2023/11/24 00:28:09;;;;;;;14.77;10.53;;;1.60;99.90;;;;;;5049530;28;20729;-56
2023/11/24 00:30:36;;;;;;;19.27;12.17;;;1.60;99.90;;;;;;5050646;28;20670;-57
2023/11/24 00:33:03;;;;;;;18.30;11.03;;;1.50;99.90;;;;;;5042307;28;20208;-57
2023/11/24 00:35:32;;;;;;;18.43;11.03;;;1.40;99.90;;;;;;5042099;28;20278;-57
2023/11/24 00:37:59;;;;;;;14.43;10.53;;;1.50;99.90;;;;;;5044124;28;20211;-57
2023/11/24 00:40:26;;;;;;;20.97;11.63;;;1.40;99.90;;;;;;5052493;28;20211;-57
2023/11/24 00:42:54;;;;;;;20.50;12.23;;;1.40;99.90;;;;;;5052635;28;20257;-56
2023/11/24 00:45:21;;;;;;;15.27;10.97;;;1.30;99.90;;;;;;5042662;28;20200;-57
2023/11/24 00:47:47;;;;;;;18.23;13.00;;;1.30;99.90;;;;;;5034314;28;20215;-57
2023/11/24 00:50:14;;;;;;;20.63;12.47;;;1.20;99.90;;;;;;5048564;28;20699;-57
2023/11/24 00:52:43;;;;;;;20.50;11.83;;;1.20;99.90;;;;;;5049715;28;20271;-57
2023/11/24 00:55:10;;;;;;;21.13;11.33;;;1.20;99.90;;;;;;5032996;28;20247;-57
2023/11/24 00:57:37;;;;;;;19.73;10.77;;;1.20;99.90;;;;;;5039430;28;20637;-57
2023/11/24 01:00:06;;;;;;;17.73;11.80;;;1.20;99.90;;;;;;5040098;28;20310;-57
2023/11/24 01:02:36;;;;;;;15.60;10.67;;;1.20;99.90;;;;;;5032727;28;20226;-57
2023/11/24 01:05:04;;;;;;;19.13;11.63;;;1.20;99.90;;;;;;5032256;28;20219;-56
2023/11/24 01:07:31;;;;;;;16.87;11.60;;;1.20;99.90;;;;;;5035626;28;20706;-57
2023/11/24 01:10:00;;;;;;;19.80;11.07;;;1.20;99.90;;;;;;5044573;28;20224;-57
2023/11/24 01:12:28;;;;;;;17.37;10.37;;;1.20;99.90;;;;;;5031963;28;20224;-57
2023/11/24 01:14:55;;;;;;;16.27;9.77;;;1.20;99.90;;;;;;5032120;28;20208;-56
2023/11/24 01:17:22;;;;;;;13.63;10.00;;;1.30;99.90;;;;;;5031647;28;20299;-57
2023/11/24 01:19:49;;;;;;;13.90;10.00;;;1.40;99.90;;;;;;5038900;28;20665;-57
2023/11/24 01:22:16;;;;;;;17.97;10.80;;;1.40;99.90;;;;;;5039778;28;20243;-57
2023/11/24 01:24:44;;;;;;;16.63;10.53;;;1.40;99.90;;;;;;5040157;28;20200;-57
2023/11/24 01:27:13;;;;;;;12.60;8.57;;;1.30;99.90;;;;;;5047541;28;20231;-57
2023/11/24 01:29:40;;;;;;;12.27;9.00;;;1.20;99.90;;;;;;5051252;28;20221;-57
2023/11/24 01:32:07;;;;;;;14.17;8.60;;;1.20;99.90;;;;;;5043236;28;20244;-57
2023/11/24 01:34:34;;;;;;;12.87;7.57;;;1.20;99.90;;;;;;5051645;28;20215;-57
2023/11/24 01:37:01;;;;;;;11.03;8.07;;;1.20;99.90;;;;;;5051273;28;20204;-57
2023/11/24 01:39:28;;;;;;;10.57;8.37;;;1.10;99.90;;;;;;5049923;28;20233;-57
2023/11/24 01:41:55;;;;;;;11.67;7.97;;;1.10;99.90;;;;;;5051120;28;20200;-57
2023/11/24 01:44:23;;;;;;;11.67;8.07;;;1.10;99.90;;;;;;5050470;28;20204;-57
2023/11/24 01:46:50;;;;;;;11.03;7.87;;;1.20;99.90;;;;;;5048259;28;20223;-57
2023/11/24 01:49:17;;;;;;;10.27;7.20;;;1.10;99.90;;;;;;5050538;28;20848;-57
2023/11/24 01:51:44;;;;;;;9.23;7.53;;;1.10;99.90;;;;;;5043775;28;20676;-57
2023/11/24 01:54:12;;;;;;;10.07;8.13;;;1.10;99.90;;;;;;5050679;28;20252;-57
2023/11/24 01:56:43;;;;;;;11.53;6.97;;;1.20;99.90;;;;;;5050075;28;20198;-57
2023/11/24 01:59:11;;;;;;;11.60;7.77;;;1.30;99.90;;;;;;5041453;28;20219;-57
2023/11/24 02:01:42;;;;;;;9.87;7.93;;;1.20;99.90;;;;;;5042749;28;20286;-57
2023/11/24 02:04:09;;;;;;;10.53;8.70;;;1.20;99.90;;;;;;5035965;28;20284;-57
2023/11/24 02:06:40;;;;;;;11.87;8.57;;;1.20;99.90;;;;;;5050480;28;20284;-57
2023/11/24 02:09:09;;;;;;;9.70;7.00;;;1.20;99.90;;;;;;5050448;28;20330;-57
2023/11/24 02:11:39;;;;;;;12.50;8.10;;;1.30;99.90;;;;;;5045147;28;20284;-57
2023/11/24 02:14:06;;;;;;;9.43;7.87;;;1.30;99.90;;;;;;5044162;28;20677;-57
2023/11/24 02:16:33;;;;;;;12.83;8.40;;;1.30;99.90;;;;;;5040644;28;20207;-57
2023/11/24 02:19:02;;;;;;;7.87;6.83;;;1.40;99.90;;;;;;5035062;28;20662;-57
2023/11/24 02:21:29;;;;;;;9.30;7.23;;;1.30;99.90;;;;;;5049246;28;20711;-57
2023/11/24 02:23:57;;;;;;;14.43;8.83;;;1.30;99.90;;;;;;5049114;28;20262;-57
2023/11/24 02:26:25;;;;;;;11.10;7.43;;;1.30;99.90;;;;;;5036603;28;20228;-57
2023/11/24 02:28:53;;;;;;;9.20;6.97;;;1.30;99.90;;;;;;5048084;28;20219;-57
2023/11/24 02:31:20;;;;;;;9.53;7.33;;;1.20;99.90;;;;;;5044865;28;20200;-57
2023/11/24 02:33:49;;;;;;;9.50;7.40;;;1.30;99.90;;;;;;5042152;28;20672;-57
2023/11/24 02:36:20;;;;;;;13.67;7.57;;;1.30;99.90;;;;;;5054458;28;20207;-57
2023/11/24 02:38:49;;;;;;;12.17;6.83;;;1.40;99.90;;;;;;5054479;28;20223;-57
2023/11/24 02:41:18;;;;;;;10.23;7.83;;;1.40;99.90;;;;;;5051032;28;20664;-57
2023/11/24 02:43:45;;;;;;;8.70;6.90;;;1.50;99.90;;;;;;5054603;28;20212;-57
2023/11/24 02:46:13;;;;;;;10.53;8.00;;;1.50;99.90;;;;;;5052044;28;20294;-57
2023/11/24 02:48:41;;;;;;;8.37;6.37;;;1.50;99.90;;;;;;5045696;28;20227;-57
2023/11/24 02:51:08;;;;;;;8.57;6.77;;;1.50;99.90;;;;;;5045580;28;20204;-57
2023/11/24 02:53:35;;;;;;;11.93;7.53;;;1.60;99.90;;;;;;5039176;28;20212;-56
2023/11/24 02:56:03;;;;;;;11.53;7.87;;;1.60;99.90;;;;;;5034143;28;20228;-57
2023/11/24 02:58:32;;;;;;;16.10;9.10;;;1.70;99.90;;;;;;5033608;28;20262;-57
2023/11/24 03:00:59;;;;;;;14.43;8.23;;;1.70;99.90;;;;;;5048055;28;20659;-57
2023/11/24 03:03:28;;;;;;;12.67;7.90;;;1.70;99.90;;;;;;5049446;28;20200;-57
2023/11/24 03:05:55;;;;;;;13.17;9.37;;;1.80;99.90;;;;;;5050763;28;20293;-57
2023/11/24 03:08:23;;;;;;;11.67;8.30;;;1.80;99.90;;;;;;5053837;28;20232;-57
2023/11/24 03:10:50;;;;;;;12.40;7.07;;;1.90;99.90;;;;;;5045278;28;20250;-57
2023/11/24 03:13:19;;;;;;;12.33;8.87;;;1.90;99.90;;;;;;5033995;28;20254;-57
2023/11/24 03:15:47;;;;;;;12.03;9.07;;;1.80;99.90;;;;;;5033624;28;20295;-57
2023/11/24 03:18:16;;;;;;;17.50;9.37;;;1.80;99.90;;;;;;5038982;28;20266;-57
2023/11/24 03:20:43;;;;;;;14.23;7.73;;;1.80;99.90;;;;;;5047704;28;20222;-57
2023/11/24 03:23:10;;;;;;;13.40;7.43;;;2.00;99.90;;;;;;5053451;28;20208;-57
2023/11/24 03:25:37;;;;;;;15.17;8.33;;;2.00;99.90;;;;;;5053288;28;20211;-57
2023/11/24 03:28:06;;;;;;;10.43;7.83;;;2.00;99.90;;;;;;5053428;28;20224;-57
2023/11/24 03:30:33;;;;;;;11.17;7.67;;;2.00;99.90;;;;;;5052961;28;20204;-57
2023/11/24 03:33:01;;;;;;;10.40;8.47;;;1.90;99.90;;;;;;5045212;28;20668;-57
2023/11/24 03:35:29;;;;;;;16.37;8.87;;;2.00;99.90;;;;;;5051211;28;20725;-56
2023/11/24 03:37:56;;;;;;;16.53;8.80;;;2.00;99.90;;;;;;5043636;28;20650;-56
2023/11/24 03:40:23;;;;;;;14.20;9.30;;;2.00;99.90;;;;;;5050064;28;20196;-59
2023/11/24 03:42:50;;;;;;;21.13;9.60;;;2.10;99.90;;;;;;5044800;28;20196;-57
2023/11/24 03:45:17;;;;;;;12.37;9.13;;;2.10;99.90;;;;;;5053520;28;20249;-57
2023/11/24 03:47:43;;;;;;;17.23;9.27;;;2.10;99.90;;;;;;5052704;28;20236;-57
2023/11/24 03:50:13;;;;;;;15.13;9.40;;;2.20;99.90;;;;;;5051100;28;20285;-56
2023/11/24 03:52:40;;;;;;;17.03;10.87;;;2.30;99.90;;;;;;5052894;28;20199;-57
2023/11/24 03:55:09;;;;;;;14.83;9.20;;;2.30;99.90;;;;;;5034556;28;20745;-56
2023/11/24 03:57:36;;;;;;;16.77;9.90;;;2.30;99.90;;;;;;5036307;28;20208;-57
2023/11/24 04:00:03;;;;;;;16.87;10.57;;;2.30;99.90;;;;;;5050749;28;20298;-56
2023/11/24 04:02:30;;;;;;;21.67;10.63;;;2.50;99.90;;;;;;5041107;28;20253;-56
2023/11/24 04:04:57;;;;;;;14.37;9.60;;;2.60;99.90;;;;;;5033075;28;20737;-57
2023/11/24 04:07:26;;;;;;;19.77;10.90;;;2.60;99.90;;;;;;5036432;28;20218;-57
2023/11/24 04:09:53;;;;;;;17.90;11.07;;;2.60;99.90;;;;;;5040415;28;20248;-57
2023/11/24 04:12:19;;;;;;;18.57;11.60;;;2.60;99.90;;;;;;5044776;28;20250;-56
2023/11/24 04:14:47;;;;;;;20.60;11.90;;;2.60;99.90;;;;;;5052865;28;20207;-57
2023/11/24 04:17:14;;;;;;;15.73;10.80;;;2.70;99.90;;;;;;5049865;28;20208;-57
2023/11/24 04:19:41;;;;;;;17.47;10.97;;;2.70;99.90;;;;;;5051990;28;20319;-57
2023/11/24 04:22:08;;;;;;;14.90;10.53;;;2.70;99.90;;;;;;5044179;28;20553;-57
2023/11/24 04:24:37;;;;;;;19.37;11.30;;;2.70;99.90;;;;;;5047754;28;20246;-57
2023/11/24 04:27:04;;;;;;;14.87;10.13;;;2.80;99.90;;;;;;5051809;28;20576;-57
2023/11/24 04:29:31;;;;;;;19.60;10.20;;;2.80;99.90;;;;;;5046843;28;20644;-57
2023/11/24 04:31:59;;;;;;;15.83;11.03;;;2.80;99.90;;;;;;5040979;28;20194;-57
2023/11/24 04:34:26;;;;;;;14.17;10.73;;;2.90;99.90;;;;;;5032016;28;20779;-57
2023/11/24 04:36:53;;;;;;;20.47;12.93;;;2.90;99.90;;;;;;5032042;28;20235;-57
2023/11/24 04:39:20;;;;;;;15.87;10.87;;;2.90;99.90;;;;;;5036215;28;20219;-57
2023/11/24 04:41:49;;;;;;;14.57;10.87;;;3.00;99.90;;;;;;5050960;28;20677;-57
2023/11/24 04:44:16;;;;;;;13.90;11.13;;;3.00;99.90;;;;;;5048491;28;20954;-57
2023/11/24 04:46:43;;;;;;;15.80;10.93;;;3.10;99.90;;;;;;5051943;28;20204;-57
2023/11/24 04:49:09;;;;;;;15.77;11.37;;;3.20;99.90;;;;;;5051070;28;20844;-57
2023/11/24 04:51:40;;;;;;;18.90;11.67;;;3.30;99.90;;;;;;5043676;28;20259;-57
2023/11/24 04:54:07;;;;;;;15.73;10.63;;;3.30;99.90;;;;;;5050115;28;20205;-57
2023/11/24 04:56:34;;;;;;;17.87;11.77;;;3.30;99.90;;;;;;5040950;28;20317;-57
2023/11/24 04:59:04;;;;;;;15.30;11.33;;;3.30;99.90;;;;;;5035825;28;20648;-57
2023/11/24 05:01:31;;;;;;;17.37;12.40;;;3.20;99.90;;;;;;5046100;28;20686;-57
2023/11/24 05:03:59;;;;;;;16.07;11.90;;;3.20;99.90;;;;;;5043566;28;20258;-57
2023/11/24 05:06:26;;;;;;;19.23;11.80;;;3.30;99.90;;;;;;5046479;28;20208;-56
2023/11/24 05:08:53;;;;;;;15.30;11.77;;;3.30;99.90;;;;;;5048924;28;20698;-56
2023/11/24 05:11:21;;;;;;;15.17;9.77;;;3.40;99.90;;;;;;5045722;28;20288;-57
2023/11/24 05:13:49;;;;;;;14.53;10.73;;;2.90;99.90;;;;;;5043240;28;20201;-57
2023/11/24 05:16:17;;;;;;;16.33;11.23;;;3.30;99.90;;;;;;5042950;28;20204;-57
2023/11/24 05:18:44;;;;;;;16.70;10.60;;;3.40;99.90;;;;;;5044616;28;20304;-57
2023/11/24 05:21:11;;;;;;;15.87;10.53;;;3.30;99.90;;;;;;5045050;28;20265;-57
2023/11/24 05:23:38;;;;;;;15.43;11.07;;;3.30;99.90;;;;;;5045239;28;20200;-57
2023/11/24 05:26:06;;;;;;;14.27;9.27;;;3.30;99.90;;;;;;5041883;28;20200;-57
2023/11/24 05:28:34;;;;;;;15.20;10.97;;;3.20;99.90;;;;;;5037635;28;20228;-57
2023/11/24 05:31:03;;;;;;;14.03;10.13;;;3.10;99.90;;;;;;5042766;28;20212;-57
2023/11/24 05:33:32;;;;;;;18.87;9.97;;;3.20;99.90;;;;;;5045815;28;20207;-57
2023/11/24 05:35:59;;;;;;;14.83;11.03;;;3.10;99.90;;;;;;5041663;28;20556;-57
2023/11/24 05:38:26;;;;;;;12.93;9.90;;;3.00;99.90;;;;;;5039522;28;20237;-57
2023/11/24 05:40:53;;;;;;;11.13;9.10;;;3.00;99.90;;;;;;5043729;28;20200;-56
2023/11/24 05:43:20;;;;;;;13.13;9.20;;;2.90;99.90;;;;;;5042229;28;20203;-57
2023/11/24 05:45:47;;;;;;;15.83;10.03;;;2.90;99.90;;;;;;5042584;28;20201;-56
2023/11/24 05:48:15;;;;;;;13.20;8.60;;;2.80;99.90;;;;;;5048165;28;20228;-57
2023/11/24 05:50:46;;;;;;;14.00;8.43;;;2.80;99.90;;;;;;5045970;28;20733;-57
2023/11/24 05:53:13;;;;;;;13.57;10.13;;;2.70;99.90;;;;;;5043294;28;20717;-58
2023/11/24 05:55:40;;;;;;;11.97;8.57;;;2.80;99.90;;;;;;5045522;28;20200;-57
2023/11/24 05:58:08;;;;;;;18.33;9.50;;;2.80;99.90;;;;;;5048067;28;20298;-57
2023/11/24 06:00:35;;;;;;;14.03;9.77;;;2.80;99.90;;;;;;5044920;28;20257;-57
2023/11/24 06:03:02;;;;;;;11.53;8.53;;;2.80;99.90;;;;;;5050376;28;20204;-57
2023/11/24 06:05:30;;;;;;;12.73;8.90;;;2.80;99.90;;;;;;5044715;28;20976;-56
2023/11/24 06:07:58;;;;;;;12.57;8.27;;;2.80;99.90;;;;;;5047423;28;20232;-57
2023/11/24 06:10:25;;;;;;;9.17;8.17;;;2.80;99.90;;;;;;5047857;28;20204;-57
2023/11/24 06:12:52;;;;;;;10.93;7.60;;;2.80;99.90;;;;;;5041808;28;20258;-57
2023/11/24 06:15:19;;;;;;;13.17;8.07;;;2.80;99.90;;;;;;5045886;28;20205;-57
2023/11/24 06:17:49;;;;;;;13.13;8.83;;;2.80;99.90;;;;;;5045931;28;20274;-57
2023/11/24 06:20:16;;;;;;;9.83;7.73;;;2.80;99.90;;;;;;5045043;28;20701;-58
2023/11/24 06:22:44;;;;;;;10.87;8.00;;;2.80;99.90;;;;;;5043496;28;20200;-57
2023/11/24 06:25:13;;;;;;;15.17;8.50;;;2.90;99.90;;;;;;5047401;28;20280;-57
2023/11/24 06:27:40;;;;;;;12.80;9.63;;;2.90;99.90;;;;;;5046507;28;20231;-57
2023/11/24 06:30:09;;;;;;;13.27;8.23;;;3.00;99.90;;;;;;5049915;28;20227;-57
2023/11/24 06:32:36;;;;;;;12.73;9.30;;;3.00;99.90;;;;;;5047214;28;20667;-57
2023/11/24 06:35:06;;;;;;;10.93;8.53;;;3.00;99.90;;;;;;5051219;28;20250;-58
2023/11/24 06:37:33;;;;;;;11.33;8.10;;;2.90;99.90;;;;;;5049907;28;20576;-57
2023/11/24 06:40:02;;;;;;;14.47;10.43;;;3.00;99.90;;;;;;5038445;28;20707;-57
2023/11/24 06:42:31;;;;;;;12.57;9.17;;;3.00;99.90;;;;;;5037120;28;20676;-58
2023/11/24 06:44:58;;;;;;;13.60;9.40;;;3.00;99.90;;;;;;5040293;28;20583;-57
2023/11/24 06:47:25;;;;;;;11.53;8.80;;;3.00;99.90;;;;;;5050273;28;20204;-57
2023/11/24 06:49:53;;;;;;;10.67;8.63;;;3.10;99.90;;;;;;5047928;28;20224;-56
2023/11/24 06:52:19;;;;;;;12.17;9.13;;;3.10;99.90;;;;;;5041309;28;20580;-58
2023/11/24 06:54:46;;;;;;;14.27;10.27;;;3.10;99.90;;;;;;5038505;28;20266;-56
2023/11/24 06:57:14;;;;;;;12.10;8.93;;;3.10;99.90;;;;;;5048857;28;20253;-57
2023/11/24 06:59:43;;;;;;;13.07;9.50;;;3.10;99.90;;;;;;5038775;28;20221;-57
2023/11/24 07:02:10;;;;;;;11.90;8.63;;;3.20;99.90;;;;;;5043354;28;20589;-57
2023/11/24 07:04:37;;;;;;;10.97;8.80;;;3.20;99.90;;;;;;5050179;28;20270;-57
2023/11/24 07:07:04;;;;;;;9.47;7.93;;;3.20;99.90;;;;;;5047259;28;20209;-58
2023/11/24 07:09:31;;;;;;;11.30;9.10;;;3.20;99.90;;;;;;5043031;28;20223;-57
2023/11/24 07:11:58;;;;;;;11.47;8.87;;;3.30;99.90;;;;;;5051655;28;20876;-58
2023/11/24 07:14:25;;;;;;;12.67;8.50;;;3.30;99.90;;;;;;5044168;28;20207;-57
2023/11/24 07:16:53;;;;;;;11.70;8.87;;;3.30;99.90;;;;;;5042742;28;20684;-57
2023/11/24 07:19:21;;;;;;;11.43;9.20;;;3.40;99.90;;;;;;5041961;28;20754;-57
2023/11/24 07:21:48;;;;;;;11.03;8.90;;;3.40;99.90;;;;;;5042694;28;20200;-57
2023/11/24 07:24:16;;;;;;;12.93;9.23;;;3.40;99.90;;;;;;5045609;28;20200;-57
2023/11/24 07:26:43;;;;;;;8.80;6.97;;;3.50;99.90;;;;;;5041340;28;20835;-57
2023/11/24 07:29:13;;;;;;;6.83;6.13;;;3.60;99.90;;;;;;5041151;28;20240;-59
2023/11/24 07:31:42;;;;;;;6.53;5.83;;;3.70;99.90;;;;;;5051380;28;20224;-62
2023/11/24 07:34:13;;;;;;;6.93;5.90;;;3.70;99.90;;;;;;5040796;28;20253;-64
2023/11/24 07:36:40;;;;;;;7.20;5.70;;;3.70;99.90;;;;;;5049628;28;20207;-63
2023/11/24 07:39:07;;;;;;;6.80;5.97;;;3.70;99.90;;;;;;5042810;28;20259;-65
2023/11/24 07:41:34;;;;;;;13.67;5.23;;;3.80;99.90;;;;;;5050288;28;20211;-63
2023/11/24 07:44:01;;;;;;;7.53;5.50;;;3.90;99.90;;;;;;5049839;28;20205;-63
2023/11/24 07:46:28;;;;;;;6.17;5.57;;;3.90;99.90;;;;;;5047843;28;20212;-62
2023/11/24 07:48:55;;;;;;;7.53;4.63;;;3.90;99.90;;;;;;5040710;28;20229;-62
2023/11/24 07:51:24;;;;;;;7.37;5.57;;;4.10;99.90;;;;;;5036809;28;20275;-62
2023/11/24 07:53:51;;;;;;;6.47;5.27;;;4.10;99.90;;;;;;5050165;28;20200;-62
2023/11/24 07:56:18;;;;;;;6.07;4.80;;;4.20;99.90;;;;;;5043782;28;20234;-64
2023/11/24 07:58:44;;;;;;;5.00;4.60;;;4.20;99.90;;;;;;5049259;28;20224;-63
2023/11/24 08:01:13;;;;;;;4.57;4.17;;;4.30;99.90;;;;;;5045111;28;20209;-63
2023/11/24 08:03:40;;;;;;;9.40;4.77;;;4.40;99.90;;;;;;5035392;28;20229;-63
2023/11/24 08:06:07;;;;;;;5.63;5.07;;;4.60;99.90;;;;;;5040702;28;20267;-63
2023/11/24 08:08:36;;;;;;;4.63;4.20;;;4.70;99.90;;;;;;5050687;28;20227;-63
2023/11/24 08:11:04;;;;;;;5.50;5.00;;;4.80;99.90;;;;;;5048835;28;20204;-63
2023/11/24 08:13:31;;;;;;;6.10;4.20;;;4.90;99.90;;;;;;5043820;28;20258;-63
2023/11/24 08:16:00;;;;;;;4.87;4.43;;;4.80;99.90;;;;;;5046149;28;20334;-56
2023/11/24 08:18:27;;;;;;;7.13;5.00;;;4.90;99.90;;;;;;5047758;28;20219;-56
2023/11/24 08:20:54;;;;;;;6.50;4.80;;;4.90;99.90;;;;;;5051242;28;20251;-57
2023/11/24 08:23:21;;;;;;;6.10;4.17;;;5.00;99.90;;;;;;5043491;28;20196;-57
2023/11/24 08:25:50;;;;;;;4.97;4.00;;;5.00;99.90;;;;;;5042934;28;20669;-56
2023/11/24 08:28:17;;;;;;;4.03;3.57;;;5.00;99.90;;;;;;5043549;28;20707;-57
2023/11/24 08:30:44;;;;;;;12.00;6.33;;;5.00;99.90;;;;;;5047872;28;20262;-63
2023/11/24 08:33:11;;;;;;;9.23;5.00;;;5.10;99.90;;;;;;5040982;28;20295;-63
2023/11/24 08:35:39;;;;;;;6.83;4.13;;;5.10;99.90;;;;;;5037660;28;20205;-56
2023/11/24 08:38:06;;;;;;;8.97;6.90;;;5.10;99.90;;;;;;5044041;28;20229;-56
2023/11/24 08:40:33;;;;;;;6.57;5.67;;;5.00;99.90;;;;;;5043139;28;20245;-56
2023/11/24 08:43:01;;;;;;;8.40;5.37;;;5.10;99.90;;;;;;5046257;28;20247;-56
2023/11/24 08:45:28;;;;;;;7.80;6.23;;;5.10;99.90;;;;;;5042916;28;20222;-56
2023/11/24 08:47:56;;;;;;;6.13;5.30;;;;;;;;;;5043798;28;20296;-56
2023/11/24 08:50:23;;;;;;;6.73;5.67;;;5.10;99.90;;;;;;5051871;28;20688;-56
2023/11/24 08:52:52;;;;;;;8.57;5.10;;;5.20;99.90;;;;;;5052086;28;20212;-56
2023/11/24 08:55:19;;;;;;;7.63;5.50;;;5.20;99.90;;;;;;5052176;28;20292;-56
2023/11/24 08:57:46;;;;;;;5.33;4.20;;;5.20;99.90;;;;;;5051711;28;20201;-56
2023/11/24 09:00:15;;;;;;;5.00;4.50;;;5.30;99.90;;;;;;5049026;28;20223;-56
2023/11/24 09:02:43;;;;;;;8.07;5.33;;;5.40;99.90;;;;;;5046346;28;20221;-56
2023/11/24 09:05:10;;;;;;;7.37;6.53;;;5.60;99.90;;;;;;5049250;28;20676;-56
2023/11/24 09:07:37;;;;;;;8.83;5.87;;;5.90;99.90;;;;;;5044334;28;20270;-56
2023/11/24 09:10:05;;;;;;;5.97;3.60;;;6.10;99.90;;;;;;5051834;28;20326;-56
2023/11/24 09:12:32;;;;;;;5.47;4.40;;;6.30;99.90;;;;;;5050966;28;20212;-56
2023/11/24 09:15:04;;;;;;;7.60;4.70;;;6.40;99.90;;;;;;5051646;28;20231;-56
2023/11/24 09:17:34;;;;;;;6.03;4.20;;;6.50;99.90;;;;;;5050581;28;20276;-56
2023/11/24 09:20:01;;;;;;;4.83;4.43;;;6.60;99.90;;;;;;5042997;28;20693;-56
2023/11/24 09:22:28;;;;;;;5.13;4.40;;;6.60;99.90;;;;;;5031726;28;20259;-56
2023/11/24 09:24:55;;;;;;;5.07;4.57;;;6.60;99.90;;;;;;5031808;28;20263;-56
2023/11/24 09:27:22;;;;;;;3.73;3.03;;;6.70;99.90;;;;;;5031273;28;20231;-56
2023/11/24 09:29:49;;;;;;;1.03;0.93;;;7.20;99.90;;;;;;5031494;28;20224;-56
2023/11/24 09:32:16;;;;;;;1.13;1.00;;;7.50;99.90;;;;;;5040035;28;20199;-56
2023/11/24 09:34:47;;;;;;;1.23;0.70;;;7.80;99.90;;;;;;5045803;28;20570;-56
2023/11/24 09:37:14;;;;;;;1.00;0.60;;;7.90;99.90;;;;;;5051265;28;20211;-56
2023/11/24 09:39:41;;;;;;;0.93;0.60;;;7.50;99.90;;;;;;5051382;28;20273;-56
2023/11/24 09:42:11;;;;;;;0.80;0.80;;;8.30;99.90;;;;;;5051234;28;20280;-57
2023/11/24 09:44:40;;;;;;;0.90;0.60;;;8.40;99.90;;;;;;5051460;28;20210;-56
2023/11/24 09:47:08;;;;;;;1.30;0.43;;;8.40;99.90;;;;;;5048983;28;20203;-56
2023/11/24 09:49:35;;;;;;;0.77;0.77;;;8.70;99.90;;;;;;5031043;28;20232;-56
2023/11/24 09:52:04;;;;;;;0.50;0.50;;;9.00;99.90;;;;;;5031344;28;20204;-57
2023/11/24 09:54:31;;;;;;;0.40;0.40;;;9.30;99.90;;;;;;5031341;28;20205;-56
2023/11/24 09:56:58;;;;;;;0.40;0.40;;;9.50;99.90;;;;;;5038250;28;20299;-56
2023/11/24 09:59:25;;;;;;;0.53;0.53;;;9.50;99.90;;;;;;5041479;28;20215;-56
2023/11/24 10:01:53;;;;;;;1.00;0.93;;;9.30;99.90;;;;;;5034554;28;20194;-56
2023/11/24 10:04:20;;;;;;;2.27;1.23;;;9.10;99.90;;;;;;5050952;28;20285;-56
2023/11/24 10:06:49;;;;;;;1.20;0.77;;;8.80;99.90;;;;;;5048812;28;20714;-56
2023/11/24 10:09:25;;;;;;;3.00;1.47;;;8.70;99.90;;;;;;5048825;28;20231;-56
2023/11/24 10:11:52;;;;;;;2.13;2.03;;;8.50;99.90;;;;;;5051368;28;20207;-56
2023/11/24 10:14:22;;;;;;;1.57;1.47;;;8.40;99.90;;;;;;5047731;28;20754;-56
2023/11/24 10:16:49;;;;;;;2.53;1.87;;;8.40;99.90;;;;;;5045809;28;20196;-57
2023/11/24 10:19:16;;;;;;;1.17;1.13;;;8.30;99.90;;;;;;5048691;28;20580;-56
2023/11/24 10:21:45;;;;;;;1.13;0.90;;;8.40;99.90;;;;;;5042854;28;20201;-56
2023/11/24 10:24:12;;;;;;;1.17;0.90;;;8.40;99.90;;;;;;5051123;28;20206;-56
2023/11/24 10:26:42;;;;;;;1.60;0.60;;;8.60;99.90;;;;;;5049956;28;20670;-56
2023/11/24 10:29:10;;;;;;;0.80;0.80;;;8.70;99.90;;;;;;5048339;28;20699;-56
2023/11/24 10:31:41;;;;;;;0.87;0.80;;;8.80;99.90;;;;;;5043074;28;20323;-57
2023/11/24 10:34:08;;;;;;;2.40;1.80;;;8.80;99.90;;;;;;5049028;28;20201;-56
2023/11/24 10:36:38;;;;;;;1.70;1.60;;;8.90;99.90;;;;;;5034170;28;20204;-57
2023/11/24 10:39:08;;;;;;;6.27;1.57;;;8.90;99.90;;;;;;5034435;28;20229;-57
2023/11/24 10:41:45;;;;;;;2.30;1.97;;;8.80;99.90;;;;;;5043901;28;20286;-56
2023/11/24 10:44:13;;;;;;;2.33;1.40;;;8.70;99.90;;;;;;5049640;28;20204;-56
2023/11/24 10:46:45;;;;;;;2.63;1.70;;;8.70;99.90;;;;;;5052682;28;20291;-56
2023/11/24 10:49:21;;;;;;;3.23;1.87;;;8.70;99.90;;;;;;5044180;28;20228;-56
2023/11/24 10:51:58;;;;;;;2.00;1.90;;;8.70;99.90;;;;;;5045136;28;20839;-57
2023/11/24 10:54:33;;;;;;;1.97;1.10;;;8.70;99.90;;;;;;5047878;28;20208;-56
2023/11/24 10:57:02;;;;;;;1.07;1.03;;;8.70;99.90;;;;;;5050365;28;20208;-56
2023/11/24 10:59:33;;;;;;;2.17;1.97;;;8.80;99.90;;;;;;5053152;28;20262;-56
2023/11/24 11:02:05;;;;;;;1.60;1.50;;;8.90;99.90;;;;;;5054332;28;20208;-57
2023/11/24 11:04:32;;;;;;;1.83;1.70;;;8.90;99.90;;;;;;5047157;28;20208;-56
2023/11/24 11:07:09;;;;;;;1.27;1.27;;;9.00;99.90;;;;;;5041708;28;20200;-56
2023/11/24 11:09:48;;;;;;;1.63;0.57;;;9.20;99.90;;;;;;5054136;28;20300;-56
2023/11/24 11:12:39;;;;;;;0.90;0.90;;;9.30;99.90;;;;;;5050009;28;20210;-56
2023/11/24 11:15:10;;;;;;;1.03;0.90;;;9.40;99.90;;;;;;5051660;28;20583;-56
2023/11/24 11:17:38;;;;;;;1.20;1.10;;;9.40;99.90;;;;;;5043056;28;20270;-56
2023/11/24 11:20:12;;;;;;;1.93;1.80;;;9.40;99.90;;;;;;5049278;28;20220;-56
2023/11/24 11:22:42;;;;;;;1.50;1.40;;;9.40;99.90;;;;;;5053831;28;20215;-56
2023/11/24 11:25:38;;;;;;;2.93;1.60;;;9.30;99.90;;;;;;5051756;28;20270;-57
2023/11/24 11:28:46;;;;;;;2.07;1.73;;;9.30;99.90;;;;;;5048345;28;20326;-56
2023/11/24 11:31:37;;;;;;;1.40;1.37;;;9.30;99.90;;;;;;5049885;28;20235;-56
2023/11/24 11:34:16;;;;;;;0.90;0.90;;;9.30;99.90;;;;;;5045951;28;20891;-56
2023/11/24 11:37:04;;;;;;;0.80;0.60;;;9.30;99.90;;;;;;5041870;28;20197;-56
2023/11/24 11:39:35;;;;;;;0.30;0.30;;;9.50;99.90;;;;;;5050675;28;20307;-56
2023/11/24 11:42:04;;;;;;;0.93;0.30;;;9.60;99.90;;;;;;5044854;28;20287;-56
2023/11/24 11:44:34;;;;;;;0.50;0.50;;;9.60;99.90;;;;;;5043453;28;20286;-57
2023/11/24 11:47:19;;;;;;;0.40;0.40;;;9.70;99.90;;;;;;5052155;28;20263;-56
2023/11/24 11:49:51;;;;;;;0.50;0.50;;;9.70;99.90;;;;;;5045251;28;20223;-57
2023/11/24 11:52:20;;;;;;;2.17;0.50;;;9.70;99.90;;;;;;5033667;28;20216;-56
2023/11/24 11:54:49;;;;;;;0.60;0.60;;;9.80;99.90;;;;;;5033300;28;20321;-57
2023/11/24 11:57:16;;;;;;;0.83;0.83;;;9.70;99.90;;;;;;5045865;28;20216;-56
2023/11/24 11:59:46;;;;;;;1.75;1.42;;;9.70;99.90;;;;;;5033946;28;20456;-63
2023/11/24 12:02:20;;;;;;;0.20;0.20;;;9.80;99.90;;;;;;5051218;28;20203;-62
2023/11/24 12:04:48;;;;;;;0.50;0.20;;;9.90;99.90;;;;;;5037822;28;20209;-63
2023/11/24 12:07:18;;;;;;;0.63;0.30;;;10.00;99.90;;;;;;5035556;28;20254;-62
2023/11/24 12:09:46;;;;;;;1.60;0.20;;;10.10;99.90;;;;;;5047846;28;20700;-62
2023/11/24 12:12:14;;;;;;;2.00;0.27;;;10.00;99.90;;;;;;5050145;28;20212;-66
2023/11/24 12:14:42;;;;;;;2.27;0.40;;;10.00;99.90;;;;;;5047160;28;20204;-63
2023/11/24 12:17:11;;;;;;;1.27;0.30;;;10.00;99.90;;;;;;5032081;28;20635;-64
2023/11/24 12:19:41;;;;;;;1.33;0.53;;;10.10;99.90;;;;;;5037498;28;20595;-65
2023/11/24 12:22:09;;;;;;;1.37;0.57;;;10.30;99.90;;;;;;5038781;28;20204;-65
2023/11/24 12:24:41;;;;;;;2.10;0.50;;;10.30;99.90;;;;;;5037583;28;20201;-63
2023/11/24 12:27:09;;;;;;;0.60;0.60;;;10.40;99.90;;;;;;5042244;28;20236;-63
2023/11/24 12:29:40;;;;;;;0.77;0.40;;;10.40;99.90;;;;;;5032115;28;20224;-63
2023/11/24 12:32:09;;;;;;;0.20;0.20;;;10.40;99.90;;;;;;5040729;28;20206;-63
2023/11/24 12:34:41;;;;;;;0.20;0.20;;;10.20;99.90;;;;;;5040790;28;20218;-63
2023/11/24 12:37:10;;;;;;;0.40;0.20;;;10.10;99.90;;;;;;5034624;28;20211;-59
2023/11/24 12:39:40;;;;;;;0.30;0.20;;;9.90;99.90;;;;;;5039600;28;20248;-61
2023/11/24 12:42:10;;;;;;;0.17;0.17;;;9.80;99.90;;;;;;5051614;28;20212;-59
2023/11/24 12:44:39;;;;;;;0.30;0.30;;;9.80;99.90;;;;;;5051917;28;20622;-62
2023/11/24 12:47:10;;;;;;;0.40;0.40;;;9.80;99.90;;;;;;5034949;28;20254;-63
2023/11/24 12:50:06;;;;;;;0.40;0.40;;;9.60;99.90;;;;;;5031515;28;20732;-64
2023/11/24 12:52:35;;;;;;;0.20;0.20;;;9.60;99.90;;;;;;5043489;28;20207;-64
2023/11/24 12:55:07;;;;;;;0.20;0.20;;;9.50;99.90;;;;;;5051601;28;20676;-64